createdAt,value
2022-10-25T00:00:03.046Z,81.4
2022-10-25T00:03:02.951Z,81.4
2022-10-25T00:06:02.970Z,81.4
2022-10-25T00:09:02.977Z,81.4
2022-10-25T00:12:02.979Z,81.4
2022-10-25T00:15:03.044Z,81.8
2022-10-25T00:18:02.907Z,81.8
2022-10-25T00:24:02.983Z,81.8
2022-10-25T00:27:03.846Z,81.4
2022-10-25T00:30:02.965Z,81.4
2022-10-25T00:33:02.971Z,81.4
2022-10-25T00:36:02.875Z,81.4
2022-10-25T00:39:02.962Z,81.4
2022-10-25T00:42:02.935Z,81.4
2022-10-25T00:45:02.936Z,81.4
2022-10-25T00:48:02.941Z,81.4
2022-10-25T00:51:03.032Z,81.4
2022-10-25T00:54:03.079Z,81.4
2022-10-25T00:57:02.916Z,81.4
2022-10-25T01:00:03.055Z,81.4
2022-10-25T01:03:02.944Z,81.4
2022-10-25T01:06:02.988Z,81.4
2022-10-25T01:09:02.994Z,81.4
2022-10-25T01:12:02.943Z,81.4
2022-10-25T01:15:03.000Z,81.4
2022-10-25T01:18:02.964Z,82.3
2022-10-25T01:21:03.106Z,82.3
2022-10-25T01:24:03.024Z,82.3
2022-10-25T01:27:03.023Z,82.3
2022-10-25T01:30:03.084Z,82.3
2022-10-25T01:33:02.965Z,82.3
2022-10-25T01:36:03.154Z,82.3
2022-10-25T01:39:02.974Z,82.3
2022-10-25T01:42:03.115Z,82.3
2022-10-25T01:45:03.028Z,82.3
2022-10-25T01:48:03.070Z,82.3
2022-10-25T01:54:03.015Z,83.8
2022-10-25T01:57:02.991Z,83.8
2022-10-25T02:00:03.006Z,83.8
2022-10-25T02:03:02.957Z,83.8
2022-10-25T02:06:03.081Z,83.8
2022-10-25T02:09:03.065Z,83.8
2022-10-25T02:12:02.992Z,83.8
2022-10-25T02:15:03.133Z,85.3
2022-10-25T02:18:02.946Z,85.3
2022-10-25T02:21:03.016Z,85.3
2022-10-25T02:24:02.933Z,85.3
2022-10-25T02:27:03.174Z,85.3
2022-10-25T02:30:02.942Z,85.3
2022-10-25T02:33:02.950Z,85.3
2022-10-25T02:36:02.990Z,85.3
2022-10-25T02:39:03.031Z,85.3
2022-10-25T02:42:02.945Z,85.3
2022-10-25T02:45:02.958Z,85.3
2022-10-25T02:48:02.954Z,85.3
2022-10-25T02:51:02.898Z,85.3
2022-10-25T02:54:02.984Z,85.3
2022-10-25T02:57:02.930Z,85.3
2022-10-25T03:00:03.467Z,85.3
2022-10-25T03:03:02.866Z,85.3
2022-10-25T03:06:02.930Z,85.3
2022-10-25T03:09:02.909Z,86.1
2022-10-25T03:12:03.046Z,86.1
2022-10-25T03:15:03.005Z,86.1
2022-10-25T03:18:02.951Z,86.1
2022-10-25T03:21:03.038Z,86.1
2022-10-25T03:24:02.975Z,86.1
2022-10-25T03:27:03.026Z,86.1
2022-10-25T03:30:02.931Z,86.1
2022-10-25T03:33:02.941Z,86.1
2022-10-25T03:36:02.916Z,86.7
2022-10-25T03:39:02.900Z,86.7
2022-10-25T03:42:02.903Z,86.7
2022-10-25T03:45:02.943Z,86.7
2022-10-25T03:48:02.883Z,86.7
2022-10-25T03:51:02.848Z,86.7
2022-10-25T03:54:02.916Z,86.7
2022-10-25T03:57:02.941Z,86.7
2022-10-25T04:00:02.994Z,86.8
2022-10-25T04:06:02.908Z,86.8
2022-10-25T04:09:03.076Z,86.8
2022-10-25T04:12:02.914Z,86.8
2022-10-25T04:15:02.919Z,86.8
2022-10-25T04:18:02.933Z,86.8
2022-10-25T04:21:02.999Z,86.8
2022-10-25T04:24:06.826Z,86.8
2022-10-25T04:27:02.915Z,87
2022-10-25T04:30:02.888Z,87
2022-10-25T04:33:02.906Z,87
2022-10-25T04:36:02.926Z,87
2022-10-25T04:39:02.973Z,87
2022-10-25T04:42:03.097Z,87
2022-10-25T04:45:02.940Z,87
2022-10-25T04:48:03.092Z,87
2022-10-25T04:51:02.973Z,87
2022-10-25T04:54:02.910Z,87
2022-10-25T04:57:02.924Z,87.1
2022-10-25T05:00:03.048Z,87.1
2022-10-25T05:03:03.114Z,87.1
2022-10-25T05:06:02.928Z,87.1
2022-10-25T05:09:02.893Z,87.1
2022-10-25T05:12:02.999Z,87.1
2022-10-25T05:15:02.939Z,87.1
2022-10-25T05:18:02.984Z,87.1
2022-10-25T05:21:02.973Z,87.1
2022-10-25T05:24:04.844Z,87.1
2022-10-25T05:27:02.911Z,87.1
2022-10-25T05:30:02.971Z,86.7
2022-10-25T05:33:07.108Z,86.7
2022-10-25T05:36:02.943Z,86.7
2022-10-25T05:39:02.931Z,86.7
2022-10-25T05:42:02.996Z,86.7
2022-10-25T05:45:02.944Z,86.7
2022-10-25T05:48:02.954Z,86.7
2022-10-25T05:51:36.437Z,86.7
2022-10-25T05:54:02.882Z,86.8
2022-10-25T05:57:02.954Z,86.8
2022-10-25T06:00:02.957Z,86.8
2022-10-25T06:03:02.965Z,86.8
2022-10-25T06:06:02.929Z,86.8
2022-10-25T06:09:02.964Z,86.8
2022-10-25T06:12:04.869Z,86.6
2022-10-25T06:15:02.977Z,86.6
2022-10-25T06:18:02.910Z,86.6
2022-10-25T06:21:02.900Z,86.6
2022-10-25T06:24:02.973Z,86.6
2022-10-25T06:27:02.947Z,86.6
2022-10-25T06:30:03.048Z,86.6
2022-10-25T06:33:02.906Z,86.6
2022-10-25T06:36:03.716Z,86.4
2022-10-25T06:39:09.227Z,86.4
2022-10-25T06:42:02.960Z,86.4
2022-10-25T06:45:03.024Z,86.4
2022-10-25T06:48:03.034Z,86.4
2022-10-25T06:51:03.019Z,86.4
2022-10-25T06:54:02.931Z,86.3
2022-10-25T06:57:02.958Z,86.3
2022-10-25T07:03:03.035Z,86.3
2022-10-25T07:06:02.946Z,86.3
2022-10-25T07:09:02.938Z,86.3
2022-10-25T07:12:02.982Z,86.3
2022-10-25T07:15:02.920Z,86.3
2022-10-25T07:18:02.979Z,86.3
2022-10-25T07:21:02.965Z,86.3
2022-10-25T07:24:03.023Z,86.3
2022-10-25T07:27:02.936Z,86.3
2022-10-25T07:30:03.040Z,86.3
2022-10-25T07:33:02.947Z,86.3
2022-10-25T07:36:13.963Z,86.3
2022-10-25T07:39:02.963Z,85.9
2022-10-25T07:42:02.944Z,85.9
2022-10-25T07:45:02.914Z,85.9
2022-10-25T07:48:02.970Z,85.8
2022-10-25T07:51:02.977Z,85.8
2022-10-25T07:54:03.038Z,85.8
2022-10-25T07:57:02.928Z,85.8
2022-10-25T08:00:02.968Z,85.8
2022-10-25T08:03:03.160Z,85.8
2022-10-25T08:06:02.975Z,85.5
2022-10-25T08:09:37.164Z,85.5
2022-10-25T08:12:02.981Z,85.5
2022-10-25T08:15:02.999Z,85.5
2022-10-25T08:18:02.934Z,85.5
2022-10-25T08:21:06.158Z,85.5
2022-10-25T08:24:03.013Z,85.3
2022-10-25T08:27:03.000Z,85.3
2022-10-25T08:30:03.166Z,85.3
2022-10-25T08:33:02.917Z,85.3
2022-10-25T08:36:03.089Z,85.3
2022-10-25T08:39:02.966Z,85.3
2022-10-25T08:42:02.936Z,85.3
2022-10-25T08:45:02.966Z,85.3
2022-10-25T08:48:03.262Z,85.1
2022-10-25T08:51:02.921Z,85.1
2022-10-25T08:54:03.039Z,85.1
2022-10-25T08:57:18.062Z,85.4
2022-10-25T09:00:03.790Z,85.4
2022-10-25T09:03:02.915Z,85.4
2022-10-25T09:06:02.991Z,85.4
2022-10-25T09:09:02.929Z,85.4
2022-10-25T09:12:02.923Z,85.4
2022-10-25T09:15:03.092Z,85.4
2022-10-25T09:18:03.000Z,85.4
2022-10-25T09:21:03.039Z,85.4
2022-10-25T09:24:02.946Z,84.6
2022-10-25T09:27:03.762Z,84.6
2022-10-25T09:30:09.608Z,84.6
2022-10-25T09:33:03.050Z,84.6
2022-10-25T09:36:03.312Z,84.6
2022-10-25T09:39:02.998Z,84.6
2022-10-25T09:42:02.982Z,84.6
2022-10-25T09:45:02.984Z,84.6
2022-10-25T09:48:02.984Z,83.2
2022-10-25T09:51:02.930Z,83.2
2022-10-25T09:54:02.928Z,83.2
2022-10-25T09:57:02.983Z,83.2
2022-10-25T10:00:03.137Z,82.9
2022-10-25T10:03:03.099Z,82.9
2022-10-25T10:06:02.954Z,82.9
2022-10-25T10:09:02.958Z,82.9
2022-10-25T10:12:03.787Z,82.9
2022-10-25T10:15:02.981Z,82.9
2022-10-25T10:18:02.986Z,82.9
2022-10-25T10:21:03.011Z,82.9
2022-10-25T10:24:02.988Z,82.9
2022-10-25T10:27:02.934Z,82.9
2022-10-25T10:30:03.007Z,82.9
2022-10-25T10:33:03.063Z,82.9
2022-10-25T10:36:02.929Z,82.9
2022-10-25T10:39:03.924Z,81
2022-10-25T10:42:03.070Z,81
2022-10-25T10:45:02.995Z,81
2022-10-25T10:48:03.022Z,81
2022-10-25T10:51:02.977Z,81
2022-10-25T10:54:03.032Z,80.5
2022-10-25T10:57:02.944Z,80.5
2022-10-25T11:00:03.002Z,80.5
2022-10-25T11:03:02.943Z,80.5
2022-10-25T11:06:02.908Z,80.5
2022-10-25T11:09:02.942Z,80.5
2022-10-25T11:12:02.958Z,80.5
2022-10-25T11:15:02.996Z,79.7
2022-10-25T11:18:02.944Z,79.7
2022-10-25T11:21:02.873Z,79.7
2022-10-25T11:24:02.943Z,79.7
2022-10-25T11:27:03.029Z,79.7
2022-10-25T11:30:03.081Z,79.7
2022-10-25T11:33:02.949Z,79.7
2022-10-25T11:36:03.003Z,79.7
2022-10-25T11:39:02.997Z,78.6
2022-10-25T11:42:03.095Z,78.6
2022-10-25T11:45:02.949Z,78.6
2022-10-25T11:48:02.922Z,77.8
2022-10-25T11:51:03.276Z,77.8
2022-10-25T11:54:02.998Z,77.8
2022-10-25T11:57:02.977Z,77.8
2022-10-25T12:00:03.176Z,77.8
2022-10-25T12:03:03.166Z,77.8
2022-10-25T12:06:02.942Z,77.8
2022-10-25T12:09:02.949Z,77.8
2022-10-25T12:12:02.971Z,77.8
2022-10-25T12:15:02.997Z,77.8
2022-10-25T12:18:02.975Z,77.8
2022-10-25T12:21:02.938Z,76.1
2022-10-25T12:24:02.944Z,76.1
2022-10-25T12:27:02.925Z,76.1
2022-10-25T12:30:03.021Z,76.1
2022-10-25T12:33:02.977Z,76.1
2022-10-25T12:36:02.939Z,76.1
2022-10-25T12:39:02.927Z,75.7
2022-10-25T12:42:02.895Z,75.7
2022-10-25T12:45:03.042Z,75.7
2022-10-25T12:48:02.911Z,75.7
2022-10-25T12:51:02.904Z,75.7
2022-10-25T12:54:02.947Z,75.7
2022-10-25T12:57:02.901Z,75.7
2022-10-25T13:00:03.068Z,75.7
2022-10-25T13:03:02.974Z,75.7
2022-10-25T13:06:03.060Z,75.7
2022-10-25T13:09:02.892Z,75.7
2022-10-25T13:12:03.103Z,75.7
2022-10-25T13:15:03.003Z,75.7
2022-10-25T13:18:02.967Z,75.7
2022-10-25T13:21:02.915Z,75.7
2022-10-25T13:24:03.228Z,75.7
2022-10-25T13:27:03.026Z,75.7
2022-10-25T13:30:03.355Z,75.7
2022-10-25T13:33:02.959Z,75.7
2022-10-25T13:36:03.019Z,79.1
2022-10-25T13:39:02.959Z,79.1
2022-10-25T13:42:02.946Z,79.1
2022-10-25T13:45:02.980Z,79.1
2022-10-25T13:48:03.033Z,79.1
2022-10-25T13:51:02.985Z,79.1
2022-10-25T13:54:03.413Z,79.1
2022-10-25T13:57:03.016Z,79.1
2022-10-25T14:00:03.424Z,79.1
2022-10-25T14:03:02.993Z,79.1
2022-10-25T14:06:02.957Z,79.1
2022-10-25T14:09:02.960Z,79.1
2022-10-25T14:12:05.585Z,79.1
2022-10-25T14:15:02.972Z,79.1
2022-10-25T14:18:03.036Z,79.1
2022-10-25T14:21:02.954Z,79.1
2022-10-25T14:24:03.013Z,79.1
2022-10-25T14:27:02.966Z,77
2022-10-25T14:30:03.117Z,77
2022-10-25T14:33:02.975Z,77.2
2022-10-25T14:36:03.003Z,77.2
2022-10-25T14:39:03.026Z,77.2
2022-10-25T14:42:03.040Z,77.2
2022-10-25T14:45:03.120Z,77.2
2022-10-25T14:48:03.005Z,77.2
2022-10-25T14:51:03.010Z,77.2
2022-10-25T14:54:03.006Z,77.2
2022-10-25T14:57:03.022Z,77.2
2022-10-25T15:00:03.088Z,77.2
2022-10-25T15:03:02.983Z,77.2
2022-10-25T15:06:02.997Z,77.2
2022-10-25T15:09:45.201Z,77.2
2022-10-25T15:12:02.949Z,77.2
2022-10-25T15:15:02.996Z,77.2
2022-10-25T15:18:03.024Z,77.2
2022-10-25T15:21:03.000Z,77.2
2022-10-25T15:24:03.007Z,77.2
2022-10-25T15:27:03.011Z,77.2
2022-10-25T15:30:03.796Z,77.2
2022-10-25T15:33:03.012Z,76.4
2022-10-25T15:36:02.954Z,76.4
2022-10-25T15:39:17.128Z,76.4
2022-10-25T15:42:03.009Z,76.5
2022-10-25T15:45:02.989Z,76.5
2022-10-25T15:48:03.006Z,76.5
2022-10-25T15:51:02.929Z,76.5
2022-10-25T15:54:02.981Z,76.5
2022-10-25T15:57:02.935Z,76.5
2022-10-25T16:00:03.050Z,76.5
2022-10-25T16:03:02.972Z,76.5
2022-10-25T16:06:02.915Z,76.5
2022-10-25T16:09:02.888Z,76.5
2022-10-25T16:12:02.956Z,76.5
2022-10-25T16:15:02.938Z,76.9
2022-10-25T16:18:02.939Z,76.9
2022-10-25T16:21:02.944Z,76.9
2022-10-25T16:24:02.949Z,76.9
2022-10-25T16:27:02.941Z,77
2022-10-25T16:30:02.962Z,77
2022-10-25T16:33:02.866Z,77.1
2022-10-25T16:36:02.967Z,77.1
2022-10-25T16:39:02.944Z,77.1
2022-10-25T16:42:02.923Z,77.1
2022-10-25T16:45:02.901Z,77.1
2022-10-25T16:51:02.901Z,77.1
2022-10-25T16:54:02.950Z,77.1
2022-10-25T16:57:02.952Z,77.1
2022-10-25T17:00:02.928Z,77.2
2022-10-25T17:03:02.961Z,77.2
2022-10-25T17:06:40.637Z,77.2
2022-10-25T17:09:02.889Z,77.2
2022-10-25T17:12:03.020Z,77.2
2022-10-25T17:15:02.982Z,77.2
2022-10-25T17:18:02.926Z,77.2
2022-10-25T17:21:02.940Z,77.5
2022-10-25T17:24:02.989Z,77.5
2022-10-25T17:27:03.072Z,77.5
2022-10-25T17:30:03.024Z,77.5
2022-10-25T17:33:02.941Z,77.5
2022-10-25T17:36:02.980Z,77.5
2022-10-25T17:39:02.946Z,77.5
2022-10-25T17:42:02.915Z,77.5
2022-10-25T17:45:02.985Z,77.5
2022-10-25T17:48:02.888Z,77.5
2022-10-25T17:51:03.011Z,78.2
2022-10-25T17:54:02.926Z,78.2
2022-10-25T17:57:02.866Z,78.2
2022-10-25T18:00:02.949Z,78.2
2022-10-25T18:03:02.938Z,78.2
2022-10-25T18:06:03.119Z,78.2
2022-10-25T18:09:02.907Z,78.2
2022-10-25T18:12:03.017Z,78.2
2022-10-25T18:15:02.946Z,78.2
2022-10-25T18:18:02.918Z,78.2
2022-10-25T18:21:03.119Z,79.6
2022-10-25T18:24:02.919Z,79.6
2022-10-25T18:27:02.966Z,79.6
2022-10-25T18:30:03.006Z,79.6
2022-10-25T18:33:02.958Z,79.6
2022-10-25T18:36:02.935Z,79.6
2022-10-25T18:39:02.918Z,79.6
2022-10-25T18:42:02.959Z,79.6
2022-10-25T18:45:02.941Z,79.6
2022-10-25T18:48:02.939Z,79.6
2022-10-25T18:51:02.921Z,80.1
2022-10-25T18:54:02.945Z,80.1
2022-10-25T18:57:03.018Z,80.1
2022-10-25T19:00:02.979Z,80.1
2022-10-25T19:03:02.883Z,80.1
2022-10-25T19:06:02.964Z,80.1
2022-10-25T19:09:02.991Z,80.1
2022-10-25T19:12:02.944Z,80.1
2022-10-25T19:15:02.954Z,80.1
2022-10-25T19:18:02.910Z,81.6
2022-10-25T19:21:02.963Z,81.6
2022-10-25T19:24:02.975Z,81.6
2022-10-25T19:27:02.934Z,81.6
2022-10-25T19:30:02.910Z,81.7
2022-10-25T19:33:02.973Z,81.7
2022-10-25T19:36:03.048Z,81.7
2022-10-25T19:39:02.967Z,81.7
2022-10-25T19:42:03.023Z,81.7
2022-10-25T19:45:02.950Z,81.7
2022-10-25T19:48:02.931Z,81.7
2022-10-25T19:51:02.927Z,81.7
2022-10-25T19:54:02.977Z,81.7
2022-10-25T19:57:02.922Z,81.7
2022-10-25T20:00:03.090Z,81.7
2022-10-25T20:03:02.893Z,81.6
2022-10-25T20:06:02.962Z,81.6
2022-10-25T20:09:02.895Z,81.6
2022-10-25T20:12:03.032Z,81.5
2022-10-25T20:15:03.280Z,81.5
2022-10-25T20:18:02.918Z,81.5
2022-10-25T20:21:02.955Z,81.5
2022-10-25T20:24:02.949Z,81.5
2022-10-25T20:27:02.948Z,81.5
2022-10-25T20:30:02.963Z,81.5
2022-10-25T20:33:02.954Z,81.5
2022-10-25T20:36:02.941Z,81.5
2022-10-25T20:39:02.938Z,81.5
2022-10-25T20:42:02.905Z,81.5
2022-10-25T20:48:02.901Z,82.6
2022-10-25T20:51:11.415Z,82.6
2022-10-25T20:54:02.924Z,82.6
2022-10-25T20:57:02.939Z,82.6
2022-10-25T21:00:02.942Z,82.6
2022-10-25T21:03:02.937Z,82.6
2022-10-25T21:06:02.910Z,82.5
2022-10-25T21:09:02.864Z,82.5
2022-10-25T21:12:03.002Z,82.5
2022-10-25T21:15:04.072Z,82.5
2022-10-25T21:18:02.955Z,82.5
2022-10-25T21:21:02.875Z,82.5
2022-10-25T21:24:02.957Z,82.5
2022-10-25T21:27:02.979Z,82.5
2022-10-25T21:30:02.942Z,82.5
2022-10-25T21:33:02.966Z,82.5
2022-10-25T21:36:02.954Z,82.5
2022-10-25T21:39:02.926Z,82.5
2022-10-25T21:42:02.928Z,82.5
2022-10-25T21:45:02.896Z,82.5
2022-10-25T21:48:03.007Z,82.5
2022-10-25T21:51:02.911Z,82.5
2022-10-25T21:54:02.969Z,82.5
2022-10-25T21:57:02.934Z,82.5
2022-10-25T22:00:03.445Z,84.4
2022-10-25T22:03:03.021Z,84.4
2022-10-25T22:06:02.894Z,84.4
2022-10-25T22:09:02.919Z,84.4
2022-10-25T22:12:02.934Z,84.4
2022-10-25T22:15:02.935Z,84.4
2022-10-25T22:18:02.916Z,84.4
2022-10-25T22:21:02.896Z,84.4
2022-10-25T22:24:02.921Z,84.1
2022-10-25T22:27:02.914Z,84.1
2022-10-25T22:30:02.955Z,84.1
2022-10-25T22:33:02.905Z,84.1
2022-10-25T22:39:02.978Z,84.1
2022-10-25T22:42:02.924Z,84.1
2022-10-25T22:45:02.934Z,84.1
2022-10-25T22:48:02.952Z,84.1
2022-10-25T22:51:02.863Z,84.1
2022-10-25T22:54:02.956Z,84.1
2022-10-25T22:57:03.061Z,83.5
2022-10-25T23:00:02.962Z,83.5
2022-10-25T23:03:02.996Z,83.5
2022-10-25T23:06:02.924Z,83.5
2022-10-25T23:09:03.171Z,83.5
2022-10-25T23:12:02.910Z,83.5
2022-10-25T23:15:02.931Z,83.5
2022-10-25T23:18:02.937Z,84
2022-10-25T23:21:02.949Z,84
2022-10-25T23:24:02.892Z,84
2022-10-25T23:27:02.923Z,84
2022-10-25T23:30:02.975Z,84
2022-10-25T23:33:02.923Z,84
2022-10-25T23:36:02.901Z,84
2022-10-25T23:39:02.963Z,84
2022-10-25T23:42:02.907Z,84
2022-10-25T23:45:02.946Z,84
2022-10-25T23:48:02.906Z,83.8
2022-10-25T23:54:02.970Z,83.8
2022-10-25T23:57:02.870Z,83.8
